Time;durP1;ratioP1;P1;durP2;ratioP2;P2;SDS_P1;SDS_P2;PMS_P1;PMS_P2;Temp;Humidity;BMP_temperature;BMP_pressure;BME280_temperature;BME280_humidity;BME280_pressure;Samples;Min_cycle;Max_cycle;Signal;HPM_P1;HPM_P2
2023/11/06 00:00:05;;;;;;;9.50;9.30;;;10.70;99.90;;;;;;5020472;28;20474;-73
2023/11/06 00:02:31;;;;;;;9.10;8.90;;;10.70;99.90;;;;;;5018241;28;20553;-72
2023/11/06 00:04:58;;;;;;;9.77;9.57;;;10.80;99.90;;;;;;5026845;27;20465;-72
2023/11/06 00:07:25;;;;;;;9.40;9.20;;;10.80;99.90;;;;;;5019967;28;20465;-74
2023/11/06 00:09:52;;;;;;;10.00;9.80;;;10.80;99.90;;;;;;5027236;27;20504;-72
2023/11/06 00:12:20;;;;;;;10.30;10.10;;;10.90;99.90;;;;;;5026823;28;20849;-71
2023/11/06 00:14:48;;;;;;;9.80;9.60;;;10.90;99.90;;;;;;5027467;27;20493;-72
2023/11/06 00:17:15;;;;;;;9.97;9.77;;;10.90;99.90;;;;;;5017042;28;20890;-71
2023/11/06 00:19:43;;;;;;;10.27;10.07;;;10.90;99.90;;;;;;5019189;27;20465;-70
2023/11/06 00:22:11;;;;;;;9.43;9.23;;;10.90;99.90;;;;;;5024624;28;20541;-72
2023/11/06 00:24:38;;;;;;;10.50;10.30;;;11.00;99.90;;;;;;5021900;27;20465;-73
2023/11/06 00:27:05;;;;;;;10.40;10.20;;;11.00;99.90;;;;;;5014841;28;20475;-71
2023/11/06 00:29:33;;;;;;;10.37;10.17;;;11.00;99.90;;;;;;5024940;28;20453;-71
2023/11/06 00:32:02;;;;;;;10.47;10.27;;;11.00;99.90;;;;;;5016936;28;20470;-71
2023/11/06 00:34:29;;;;;;;9.70;9.50;;;10.90;99.90;;;;;;5019535;28;20489;-72
2023/11/06 00:36:56;;;;;;;9.97;9.77;;;10.90;99.90;;;;;;5010056;28;21011;-72
2023/11/06 00:39:24;;;;;;;9.60;9.40;;;11.00;99.90;;;;;;5021177;28;20465;-72
2023/11/06 00:41:52;;;;;;;10.00;9.80;;;11.00;99.90;;;;;;5013754;28;20462;-73
2023/11/06 00:44:19;;;;;;;10.50;10.30;;;11.00;99.90;;;;;;5012208;28;21023;-70
2023/11/06 00:46:47;;;;;;;9.70;9.50;;;11.00;99.90;;;;;;5022825;28;20474;-71
2023/11/06 00:49:14;;;;;;;9.77;9.57;;;11.00;99.90;;;;;;5021585;28;20478;-71
2023/11/06 00:51:41;;;;;;;10.30;10.10;;;10.90;99.90;;;;;;5020818;28;20521;-74
2023/11/06 00:54:08;;;;;;;10.10;9.90;;;10.90;99.90;;;;;;5025662;28;20464;-74
2023/11/06 00:56:35;;;;;;;9.93;9.73;;;11.00;99.90;;;;;;5014381;28;20467;-71
2023/11/06 00:59:02;;;;;;;10.30;10.10;;;11.00;99.90;;;;;;5022074;27;20472;-71
2023/11/06 01:01:29;;;;;;;10.00;9.80;;;11.00;99.90;;;;;;5019012;28;20714;-71
2023/11/06 01:03:58;;;;;;;9.90;9.70;;;11.00;99.90;;;;;;5023793;28;20831;-73
2023/11/06 01:06:25;;;;;;;9.63;9.43;;;11.00;99.90;;;;;;5021306;28;20462;-73
2023/11/06 01:08:53;;;;;;;9.90;9.70;;;11.00;99.90;;;;;;5032502;27;20473;-75
2023/11/06 01:11:19;;;;;;;10.13;9.93;;;11.00;99.90;;;;;;5026292;27;20467;-72
2023/11/06 01:13:46;;;;;;;9.83;9.63;;;11.10;99.90;;;;;;5026417;27;20952;-74
2023/11/06 01:16:13;;;;;;;9.97;9.77;;;11.00;99.90;;;;;;5015186;27;20490;-71
2023/11/06 01:18:40;;;;;;;9.90;9.70;;;10.90;99.90;;;;;;5010458;28;20465;-72
2023/11/06 01:21:08;;;;;;;9.93;9.73;;;10.90;99.90;;;;;;5025646;28;20453;-71
2023/11/06 01:23:35;;;;;;;9.80;9.60;;;10.90;99.90;;;;;;5020362;28;20472;-72
2023/11/06 01:26:02;;;;;;;10.27;10.07;;;10.90;99.90;;;;;;5024799;28;20553;-71
2023/11/06 01:28:29;;;;;;;10.10;9.90;;;10.90;99.90;;;;;;5014020;28;20455;-71
2023/11/06 01:30:56;;;;;;;10.23;10.03;;;10.80;99.90;;;;;;5026085;28;20461;-71
2023/11/06 01:33:23;;;;;;;10.77;10.57;;;10.90;99.90;;;;;;5018064;27;20462;-74
2023/11/06 01:35:50;;;;;;;10.07;9.87;;;10.80;99.90;;;;;;5020421;28;20498;-74
2023/11/06 01:38:18;;;;;;;10.30;10.10;;;10.80;99.90;;;;;;5026095;28;20493;-73
2023/11/06 01:40:45;;;;;;;10.20;10.00;;;10.80;99.90;;;;;;5025770;28;20477;-74
2023/11/06 01:43:12;;;;;;;10.10;9.90;;;10.90;99.90;;;;;;5020888;28;20475;-71
2023/11/06 01:45:39;;;;;;;10.40;10.20;;;10.80;99.90;;;;;;4970610;28;20512;-71
2023/11/06 01:48:07;;;;;;;9.97;9.77;;;10.70;99.90;;;;;;4980988;28;20992;-74
2023/11/06 01:50:36;;;;;;;9.47;9.27;;;10.60;99.90;;;;;;4979021;28;20463;-71
2023/11/06 01:53:07;;;;;;;9.60;9.40;;;10.60;99.90;;;;;;4986210;28;20462;-73
2023/11/06 01:55:36;;;;;;;9.10;8.90;;;10.50;99.90;;;;;;4982784;28;20996;-73
2023/11/06 01:58:03;;;;;;;8.53;8.43;;;10.40;99.90;;;;;;4979984;28;20877;-71
2023/11/06 02:00:32;;;;;;;8.47;8.37;;;10.40;99.90;;;;;;4997805;28;20466;-72
2023/11/06 02:03:00;;;;;;;8.20;8.10;;;10.30;99.90;;;;;;4978926;28;20871;-70
2023/11/06 02:05:28;;;;;;;15.13;14.43;;;10.20;99.90;;;;;;4984268;28;20467;-71
2023/11/06 02:07:55;;;;;;;15.20;14.60;;;10.20;99.90;;;;;;4984333;28;20467;-71
2023/11/06 02:10:22;;;;;;;14.60;14.00;;;10.00;99.90;;;;;;5019490;28;20893;-72
2023/11/06 02:12:50;;;;;;;14.50;13.90;;;9.80;99.90;;;;;;4981844;28;20665;-70
2023/11/06 02:15:17;;;;;;;14.30;13.77;;;9.70;99.90;;;;;;4991677;28;20483;-71
2023/11/06 02:17:44;;;;;;;13.70;13.20;;;9.60;99.90;;;;;;4981805;28;20467;-71
2023/11/06 02:20:12;;;;;;;13.07;12.67;;;9.60;99.90;;;;;;4978491;28;20473;-71
2023/11/06 02:22:42;;;;;;;12.93;12.53;;;9.50;99.90;;;;;;4984412;28;20477;-69
2023/11/06 02:25:10;;;;;;;13.03;12.63;;;9.50;99.90;;;;;;4981951;28;20957;-70
2023/11/06 02:27:39;;;;;;;12.90;12.50;;;9.50;99.90;;;;;;4986997;28;20466;-71
2023/11/06 02:30:07;;;;;;;12.90;12.50;;;9.50;99.90;;;;;;4981073;28;20473;-70
2023/11/06 02:32:34;;;;;;;12.77;12.37;;;9.50;99.90;;;;;;4980255;28;20883;-70
2023/11/06 02:35:01;;;;;;;11.67;11.37;;;9.50;99.90;;;;;;4985884;28;20494;-71
2023/11/06 02:37:28;;;;;;;12.80;12.40;;;9.50;99.90;;;;;;4976019;28;20471;-72
2023/11/06 02:39:55;;;;;;;12.20;11.80;;;9.50;99.90;;;;;;4985807;28;20466;-70
2023/11/06 02:42:23;;;;;;;11.60;11.30;;;9.50;99.90;;;;;;4977329;28;20471;-73
2023/11/06 02:44:50;;;;;;;11.77;11.47;;;9.50;99.90;;;;;;5010750;28;20879;-70
2023/11/06 02:47:17;;;;;;;11.53;11.23;;;9.50;99.90;;;;;;5025702;28;20480;-70
2023/11/06 02:49:44;;;;;;;10.93;10.63;;;9.50;99.90;;;;;;5012051;28;20489;-70
2023/11/06 02:52:12;;;;;;;11.00;10.70;;;9.50;99.90;;;;;;5019511;28;20477;-72
2023/11/06 02:54:39;;;;;;;10.73;10.43;;;9.50;99.90;;;;;;5025098;28;20782;-70
2023/11/06 02:57:06;;;;;;;10.00;9.80;;;9.60;99.90;;;;;;5021041;28;20462;-70
2023/11/06 02:59:34;;;;;;;9.83;9.63;;;9.50;99.90;;;;;;5010798;28;20842;-70
2023/11/06 03:02:02;;;;;;;9.67;9.47;;;9.60;99.90;;;;;;5024732;28;20472;-70
2023/11/06 03:04:31;;;;;;;9.50;9.30;;;9.60;99.90;;;;;;5013723;28;20605;-70
2023/11/06 03:06:58;;;;;;;9.07;8.87;;;9.50;99.90;;;;;;5019609;28;20473;-70
2023/11/06 03:09:25;;;;;;;8.23;8.13;;;9.60;99.90;;;;;;5029881;28;20465;-73
2023/11/06 03:11:53;;;;;;;8.00;7.90;;;9.60;99.90;;;;;;5021934;28;20470;-71
2023/11/06 03:14:21;;;;;;;7.60;7.50;;;9.60;99.90;;;;;;5024731;28;20466;-72
2023/11/06 03:16:49;;;;;;;7.80;7.70;;;9.60;99.90;;;;;;5009667;28;20489;-70
2023/11/06 03:19:16;;;;;;;7.40;7.30;;;9.60;99.90;;;;;;5023235;28;20449;-70
2023/11/06 03:21:42;;;;;;;7.47;7.37;;;9.60;99.90;;;;;;5016407;28;20856;-71
2023/11/06 03:24:10;;;;;;;7.60;7.50;;;9.70;99.90;;;;;;5028674;28;20453;-70
2023/11/06 03:26:37;;;;;;;7.33;7.23;;;9.70;99.90;;;;;;5018318;28;20470;-71
2023/11/06 03:29:03;;;;;;;7.90;7.80;;;9.70;99.90;;;;;;5024012;27;20514;-71
2023/11/06 03:31:30;;;;;;;7.70;7.60;;;9.70;99.90;;;;;;5014975;28;20785;-70
2023/11/06 03:33:59;;;;;;;7.90;7.80;;;9.70;99.90;;;;;;5027651;28;20891;-70
2023/11/06 03:36:25;;;;;;;8.20;8.10;;;9.70;99.90;;;;;;5019393;28;20862;-71
2023/11/06 03:38:52;;;;;;;7.63;7.53;;;9.60;99.90;;;;;;5018931;28;20473;-70
2023/11/06 03:41:19;;;;;;;8.07;7.97;;;9.60;99.90;;;;;;5023642;28;20472;-69
2023/11/06 03:43:48;;;;;;;8.30;8.20;;;9.60;99.90;;;;;;5027469;28;20806;-70
2023/11/06 03:46:16;;;;;;;7.80;7.70;;;9.60;99.90;;;;;;5023497;28;20959;-73
2023/11/06 03:48:43;;;;;;;8.30;8.20;;;9.60;99.90;;;;;;5014075;28;20485;-70
2023/11/06 03:51:12;;;;;;;8.10;8.00;;;9.50;99.90;;;;;;5018435;28;20454;-72
2023/11/06 03:53:38;;;;;;;7.83;7.73;;;9.50;99.90;;;;;;5027685;28;20465;-70
2023/11/06 03:56:06;;;;;;;8.40;8.30;;;9.50;99.90;;;;;;5016438;28;20861;-70
2023/11/06 03:58:33;;;;;;;8.23;8.13;;;9.50;99.90;;;;;;5025375;28;20457;-70
2023/11/06 04:01:00;;;;;;;8.20;8.10;;;9.50;99.90;;;;;;5019916;28;21133;-72
2023/11/06 04:03:27;;;;;;;8.20;8.10;;;9.60;99.90;;;;;;5040618;27;20468;-70
2023/11/06 04:05:54;;;;;;;8.70;8.60;;;9.60;99.90;;;;;;5027314;28;20468;-70
2023/11/06 04:08:22;;;;;;;7.60;7.50;;;9.60;99.90;;;;;;5025543;28;20497;-70
2023/11/06 04:10:49;;;;;;;8.17;8.07;;;9.70;99.90;;;;;;5018828;28;20465;-70
2023/11/06 04:13:17;;;;;;;8.40;8.30;;;9.70;99.90;;;;;;5014354;28;20964;-72
2023/11/06 04:15:44;;;;;;;8.07;7.97;;;9.70;99.90;;;;;;5022361;28;20477;-70
2023/11/06 04:18:11;;;;;;;8.33;8.23;;;9.70;99.90;;;;;;5022067;28;20963;-70
2023/11/06 04:20:41;;;;;;;7.63;7.53;;;9.70;99.90;;;;;;5027671;28;20576;-70
2023/11/06 04:23:08;;;;;;;8.07;7.97;;;9.80;99.90;;;;;;5016028;28;20501;-71
2023/11/06 04:25:36;;;;;;;7.83;7.73;;;9.80;99.90;;;;;;5027537;28;20476;-70
2023/11/06 04:28:04;;;;;;;8.40;8.30;;;9.90;99.90;;;;;;5017364;28;20466;-70
2023/11/06 04:30:32;;;;;;;7.63;7.53;;;9.90;99.90;;;;;;5020684;28;20459;-70
2023/11/06 04:32:59;;;;;;;7.90;7.80;;;9.90;99.90;;;;;;5022274;28;20465;-70
2023/11/06 04:35:26;;;;;;;7.63;7.53;;;9.90;99.90;;;;;;5027374;28;20467;-70
2023/11/06 04:37:53;;;;;;;7.90;7.80;;;9.90;99.90;;;;;;5023079;28;20940;-70
2023/11/06 04:40:21;;;;;;;8.33;8.23;;;9.90;99.90;;;;;;5019860;28;20544;-72
2023/11/06 04:42:49;;;;;;;8.27;8.17;;;9.90;99.90;;;;;;5016093;28;20829;-71
2023/11/06 04:45:16;;;;;;;8.30;8.20;;;10.00;99.90;;;;;;5015334;28;21067;-70
2023/11/06 04:47:43;;;;;;;7.63;7.53;;;10.00;99.90;;;;;;5024127;28;20572;-71
2023/11/06 04:50:10;;;;;;;7.97;7.87;;;10.00;99.90;;;;;;5062315;27;20889;-72
2023/11/06 04:52:37;;;;;;;8.10;8.00;;;9.90;99.90;;;;;;5016127;28;20453;-70
2023/11/06 04:55:05;;;;;;;8.17;8.07;;;10.00;99.90;;;;;;5026991;27;20966;-71
2023/11/06 04:57:32;;;;;;;8.00;7.90;;;9.90;99.90;;;;;;5015625;28;20605;-70
2023/11/06 05:00:01;;;;;;;8.03;7.93;;;9.80;99.90;;;;;;5024064;28;20468;-72
2023/11/06 05:02:28;;;;;;;8.47;8.37;;;9.70;99.90;;;;;;5012196;28;20826;-71
2023/11/06 05:04:55;;;;;;;8.47;8.37;;;9.70;99.90;;;;;;5022682;28;20461;-69
2023/11/06 05:07:22;;;;;;;8.70;8.60;;;9.70;99.90;;;;;;5020295;28;20465;-70
2023/11/06 05:09:49;;;;;;;8.60;8.50;;;9.70;99.90;;;;;;5012578;27;20744;-70
2023/11/06 05:12:16;;;;;;;8.50;8.40;;;9.60;99.90;;;;;;5021450;28;20535;-69
2023/11/06 05:14:43;;;;;;;8.50;8.40;;;9.60;99.90;;;;;;5025603;28;21021;-70
2023/11/06 05:17:11;;;;;;;8.13;8.03;;;9.60;99.90;;;;;;5025471;28;20508;-70
2023/11/06 05:19:42;;;;;;;8.73;8.63;;;9.70;99.90;;;;;;5021527;28;20598;-73
2023/11/06 05:22:09;;;;;;;8.60;8.50;;;9.80;99.90;;;;;;5011042;28;20469;-72
2023/11/06 05:24:37;;;;;;;9.10;8.90;;;9.90;99.90;;;;;;5026215;28;20553;-70
2023/11/06 05:27:04;;;;;;;9.00;8.80;;;10.00;99.90;;;;;;5015070;28;20473;-70
2023/11/06 05:29:33;;;;;;;8.97;8.77;;;10.10;99.90;;;;;;5022479;27;20469;-74
2023/11/06 05:32:00;;;;;;;9.60;9.40;;;10.10;99.90;;;;;;5015238;28;20561;-72
2023/11/06 05:34:28;;;;;;;9.67;9.47;;;10.20;99.90;;;;;;5011774;28;20923;-70
2023/11/06 05:36:55;;;;;;;9.87;9.67;;;10.20;99.90;;;;;;5024113;28;20504;-72
2023/11/06 05:39:22;;;;;;;9.83;9.63;;;10.30;99.90;;;;;;5011929;27;21012;-69
2023/11/06 05:41:49;;;;;;;10.00;9.80;;;10.30;99.90;;;;;;5025096;28;20458;-71
2023/11/06 05:44:16;;;;;;;10.30;10.10;;;10.30;99.90;;;;;;5025061;27;20480;-69
2023/11/06 05:46:43;;;;;;;10.60;10.40;;;10.20;99.90;;;;;;5015860;28;20469;-69
2023/11/06 05:49:10;;;;;;;10.80;10.50;;;10.20;99.90;;;;;;5018699;28;21017;-69
2023/11/06 05:51:39;;;;;;;10.50;10.30;;;10.20;99.90;;;;;;5012445;28;20465;-70
2023/11/06 05:54:06;;;;;;;10.40;10.20;;;10.30;99.90;;;;;;5019787;28;20465;-70
2023/11/06 05:56:33;;;;;;;10.83;10.53;;;10.30;99.90;;;;;;5014570;28;20723;-71
2023/11/06 05:59:00;;;;;;;10.50;10.30;;;10.30;99.90;;;;;;5018450;27;20834;-70
2023/11/06 06:01:30;;;;;;;11.10;10.80;;;10.30;99.90;;;;;;5024931;28;20473;-70
2023/11/06 06:03:57;;;;;;;11.40;11.10;;;10.30;99.90;;;;;;5024197;28;20465;-69
2023/11/06 06:06:25;;;;;;;11.27;10.97;;;10.30;99.90;;;;;;5005679;28;20500;-70
2023/11/06 06:08:53;;;;;;;11.27;10.97;;;10.20;99.90;;;;;;5020308;28;20465;-71
2023/11/06 06:11:20;;;;;;;11.40;11.10;;;10.20;99.90;;;;;;5024937;28;20460;-69
2023/11/06 06:13:47;;;;;;;10.93;10.63;;;10.00;99.90;;;;;;5021825;28;20526;-69
2023/11/06 06:16:13;;;;;;;10.80;10.50;;;10.00;99.90;;;;;;5019723;28;20490;-72
2023/11/06 06:18:40;;;;;;;10.50;10.30;;;9.90;99.90;;;;;;5018101;28;20472;-72
2023/11/06 06:21:07;;;;;;;10.40;10.20;;;9.80;99.90;;;;;;5018071;28;20457;-70
2023/11/06 06:23:34;;;;;;;11.20;10.90;;;9.70;99.90;;;;;;5022415;28;20470;-70
2023/11/06 06:26:03;;;;;;;10.83;10.53;;;9.70;99.90;;;;;;5009873;28;20466;-72
2023/11/06 06:28:29;;;;;;;10.70;10.40;;;9.60;99.90;;;;;;5015987;28;20553;-71
2023/11/06 06:30:57;;;;;;;11.17;10.87;;;9.60;99.90;;;;;;5006566;28;20470;-72
2023/11/06 06:33:23;;;;;;;10.77;10.47;;;9.60;99.90;;;;;;5016446;28;20457;-70
2023/11/06 06:35:50;;;;;;;10.87;10.57;;;9.60;99.90;;;;;;5025277;28;20461;-71
2023/11/06 06:38:18;;;;;;;10.63;10.37;;;9.50;99.90;;;;;;5024447;28;20457;-73
2023/11/06 06:40:49;;;;;;;10.50;10.30;;;9.50;99.90;;;;;;5013883;28;20492;-73
2023/11/06 06:43:17;;;;;;;11.10;10.80;;;9.50;99.90;;;;;;5007344;28;20465;-71
2023/11/06 06:45:44;;;;;;;11.00;10.70;;;9.50;99.90;;;;;;5016902;28;20465;-70
2023/11/06 06:48:10;;;;;;;10.13;9.93;;;9.50;99.90;;;;;;5024079;28;20474;-70
2023/11/06 06:50:37;;;;;;;10.30;10.10;;;9.50;99.90;;;;;;5025237;28;20457;-70
2023/11/06 06:53:04;;;;;;;10.43;10.23;;;9.50;99.90;;;;;;5014894;28;20465;-72
2023/11/06 06:55:31;;;;;;;10.53;10.33;;;9.60;99.90;;;;;;5014933;28;20458;-70
2023/11/06 06:57:59;;;;;;;10.50;10.30;;;9.70;99.90;;;;;;5015239;28;20787;-71
2023/11/06 07:00:27;;;;;;;10.30;10.10;;;9.80;99.90;;;;;;5014555;27;20473;-73
2023/11/06 07:02:54;;;;;;;10.60;10.40;;;9.90;99.90;;;;;;5020394;28;20557;-69
2023/11/06 07:05:21;;;;;;;10.43;10.23;;;10.00;99.90;;;;;;5023555;28;20516;-70
2023/11/06 07:07:48;;;;;;;10.80;10.57;;;10.00;99.90;;;;;;5021964;28;21068;-74
2023/11/06 07:10:15;;;;;;;10.80;10.53;;;10.10;99.90;;;;;;5015887;28;20465;-70
2023/11/06 07:12:42;;;;;;;11.33;11.03;;;10.10;99.90;;;;;;5020533;28;21016;-70
2023/11/06 07:15:09;;;;;;;11.30;11.00;;;10.20;99.90;;;;;;5066367;27;20453;-70
2023/11/06 07:17:38;;;;;;;11.80;11.50;;;10.20;99.90;;;;;;5025341;28;20499;-70
2023/11/06 07:20:07;;;;;;;11.80;11.50;;;10.20;99.90;;;;;;5024571;28;20256;-69
2023/11/06 07:22:33;;;;;;;11.60;11.30;;;10.20;99.90;;;;;;5019773;28;20462;-70
2023/11/06 07:25:01;;;;;;;11.70;11.40;;;10.20;99.90;;;;;;5019145;28;20478;-73
2023/11/06 07:27:28;;;;;;;11.90;11.60;;;10.30;99.90;;;;;;5007930;28;20919;-70
2023/11/06 07:29:55;;;;;;;11.97;11.67;;;10.40;99.90;;;;;;5023250;27;20461;-70
2023/11/06 07:32:22;;;;;;;12.00;11.70;;;10.40;99.90;;;;;;5024708;28;20450;-71
2023/11/06 07:34:51;;;;;;;12.10;11.80;;;10.50;99.90;;;;;;5025779;28;20919;-70
2023/11/06 07:37:18;;;;;;;12.07;11.77;;;10.50;99.90;;;;;;5013266;28;20883;-71
2023/11/06 07:39:45;;;;;;;12.43;12.03;;;10.50;99.90;;;;;;5021406;27;20462;-72
2023/11/06 07:42:12;;;;;;;12.60;12.20;;;10.50;99.90;;;;;;5018240;28;21007;-71
2023/11/06 07:44:41;;;;;;;12.60;12.20;;;10.50;99.90;;;;;;5023255;28;20525;-71
2023/11/06 07:47:08;;;;;;;12.60;12.20;;;10.50;99.90;;;;;;5015869;28;20509;-74
2023/11/06 07:49:35;;;;;;;12.90;12.50;;;10.50;99.90;;;;;;5018427;28;20461;-70
2023/11/06 07:52:08;;;;;;;13.10;12.70;;;10.50;99.90;;;;;;5016813;28;20465;-70
2023/11/06 07:54:36;;;;;;;13.20;12.80;;;10.50;99.90;;;;;;5020220;27;20470;-70
2023/11/06 07:57:02;;;;;;;12.77;12.37;;;10.40;99.90;;;;;;5010918;28;20484;-70
2023/11/06 07:59:29;;;;;;;12.80;12.40;;;10.30;99.90;;;;;;5011050;28;20857;-70
2023/11/06 08:01:56;;;;;;;12.17;11.87;;;10.30;99.90;;;;;;5024385;28;20464;-73
2023/11/06 08:04:23;;;;;;;12.27;11.97;;;10.30;99.90;;;;;;5016123;28;20465;-72
2023/11/06 08:06:50;;;;;;;12.57;12.17;;;10.20;99.90;;;;;;5020703;28;20488;-72
2023/11/06 08:09:18;;;;;;;12.60;12.20;;;10.30;99.90;;;;;;5012482;27;20458;-70
2023/11/06 08:11:46;;;;;;;12.97;12.57;;;10.30;99.90;;;;;;5016206;28;20496;-73
2023/11/06 08:14:13;;;;;;;12.77;12.37;;;10.30;99.90;;;;;;5014510;27;20530;-70
2023/11/06 08:16:39;;;;;;;13.30;12.90;;;10.30;99.90;;;;;;5005880;28;20994;-70
2023/11/06 08:19:06;;;;;;;12.60;12.20;;;10.20;99.90;;;;;;5012997;27;20964;-71
2023/11/06 08:21:32;;;;;;;12.93;12.53;;;10.20;99.90;;;;;;5009932;28;20831;-71
2023/11/06 08:24:00;;;;;;;13.20;12.80;;;10.30;99.90;;;;;;5011049;27;20845;-72
2023/11/06 08:26:31;;;;;;;13.33;12.93;;;10.30;99.90;;;;;;5008820;28;20463;-70
2023/11/06 08:28:58;;;;;;;13.30;12.90;;;10.30;99.90;;;;;;5014076;28;20458;-70
2023/11/06 08:31:24;;;;;;;13.40;13.00;;;10.40;99.90;;;;;;5008235;28;20502;-71
2023/11/06 08:33:51;;;;;;;13.47;13.07;;;10.40;99.90;;;;;;5011968;28;20462;-71
2023/11/06 08:36:18;;;;;;;13.30;12.90;;;10.50;99.90;;;;;;5006700;28;20467;-72
2023/11/06 08:38:46;;;;;;;13.30;12.90;;;10.50;99.90;;;;;;5012811;28;20584;-72
2023/11/06 08:41:13;;;;;;;13.50;13.10;;;10.50;99.90;;;;;;5010162;28;20542;-71
2023/11/06 08:43:41;;;;;;;13.67;13.27;;;10.60;99.90;;;;;;5011810;28;20564;-70
2023/11/06 08:46:08;;;;;;;13.30;12.90;;;10.60;99.90;;;;;;5009017;28;20472;-72
2023/11/06 08:48:35;;;;;;;13.00;12.60;;;10.70;99.90;;;;;;5013610;28;20482;-70
2023/11/06 08:51:02;;;;;;;12.20;11.90;;;10.80;99.90;;;;;;5008040;28;20700;-70
2023/11/06 08:53:31;;;;;;;13.70;13.30;;;11.00;99.90;;;;;;5013648;28;20478;-71
2023/11/06 08:55:58;;;;;;;13.90;13.43;;;11.30;99.90;;;;;;5003860;28;20558;-70
2023/11/06 08:58:25;;;;;;;13.60;13.20;;;11.40;99.90;;;;;;5012662;28;20567;-72
2023/11/06 09:00:53;;;;;;;13.80;13.40;;;11.50;99.90;;;;;;5010260;28;20450;-73
2023/11/06 09:03:20;;;;;;;13.70;13.30;;;11.60;99.90;;;;;;5009560;28;20781;-71
2023/11/06 09:05:49;;;;;;;13.67;13.27;;;11.50;99.90;;;;;;5012740;28;20469;-70
2023/11/06 09:08:17;;;;;;;13.30;12.90;;;11.40;99.90;;;;;;5010943;28;20544;-73
2023/11/06 09:10:59;;;;;;;13.40;13.00;;;11.40;99.90;;;;;;5008227;27;20520;-70
2023/11/06 09:13:28;;;;;;;14.50;14.00;;;11.30;99.90;;;;;;5010494;28;20858;-70
2023/11/06 09:15:56;;;;;;;13.87;13.37;;;11.20;99.90;;;;;;5011684;28;20492;-73
2023/11/06 09:18:23;;;;;;;14.40;13.90;;;11.30;99.90;;;;;;5010855;28;21042;-69
2023/11/06 09:20:51;;;;;;;13.87;13.37;;;11.20;99.90;;;;;;5004717;28;20829;-72
2023/11/06 09:23:21;;;;;;;13.37;12.97;;;11.40;99.90;;;;;;5007811;28;20822;-70
2023/11/06 09:25:48;;;;;;;13.20;12.80;;;11.50;99.90;;;;;;5009228;28;20759;-72
2023/11/06 09:28:14;;;;;;;13.40;13.00;;;11.60;99.90;;;;;;5006942;28;20469;-72
2023/11/06 09:30:44;;;;;;;13.97;13.47;;;11.70;99.90;;;;;;5010080;28;20801;-71
2023/11/06 09:33:12;;;;;;;13.63;13.23;;;11.70;99.90;;;;;;5008192;28;20552;-71
2023/11/06 09:35:39;;;;;;;14.00;13.50;;;11.70;99.90;;;;;;5007394;28;20462;-70
2023/11/06 09:38:07;;;;;;;13.80;13.40;;;11.70;99.90;;;;;;5006102;28;20535;-70
2023/11/06 09:40:34;;;;;;;13.70;13.30;;;11.70;99.90;;;;;;5008455;28;20463;-71
2023/11/06 09:43:01;;;;;;;13.57;13.17;;;11.70;99.90;;;;;;5011887;28;21079;-69
2023/11/06 09:45:27;;;;;;;13.63;13.23;;;11.70;99.90;;;;;;5006932;28;20493;-69
2023/11/06 09:47:59;;;;;;;13.97;13.47;;;11.90;99.90;;;;;;5011612;28;20547;-71
2023/11/06 09:50:29;;;;;;;13.67;13.27;;;12.10;99.90;;;;;;5010899;28;20485;-71
2023/11/06 09:52:57;;;;;;;14.27;13.77;;;12.20;99.90;;;;;;5011084;28;20467;-71
2023/11/06 09:55:25;;;;;;;14.30;13.80;;;12.20;99.90;;;;;;5007004;28;20485;-71
2023/11/06 09:57:52;;;;;;;13.63;13.23;;;12.50;99.90;;;;;;5007712;28;20497;-71
2023/11/06 10:00:20;;;;;;;14.30;13.80;;;12.60;99.90;;;;;;5012196;28;20640;-71
2023/11/06 10:02:48;;;;;;;14.63;14.13;;;12.80;99.90;;;;;;5010966;28;20807;-71
2023/11/06 10:05:16;;;;;;;14.00;13.50;;;12.90;99.90;;;;;;5011131;28;20552;-70
2023/11/06 10:07:48;;;;;;;14.63;14.13;;;12.80;99.90;;;;;;5009530;28;20479;-71
2023/11/06 10:10:16;;;;;;;14.93;14.43;;;12.90;99.90;;;;;;5007692;28;20470;-75
2023/11/06 10:12:43;;;;;;;14.50;14.00;;;12.80;99.90;;;;;;5011542;28;20486;-74
2023/11/06 10:15:12;;;;;;;13.90;13.50;;;12.80;99.90;;;;;;5011006;28;20893;-70
2023/11/06 10:17:40;;;;;;;13.93;13.53;;;12.70;99.90;;;;;;5007431;28;20574;-72
2023/11/06 10:20:13;;;;;;;14.40;13.90;;;12.70;99.90;;;;;;5006213;28;20565;-72
2023/11/06 10:22:55;;;;;;;14.13;13.67;;;12.60;99.90;;;;;;5008317;28;20465;-72
2023/11/06 10:25:27;;;;;;;14.13;13.63;;;12.60;99.90;;;;;;5011182;28;20497;-71
2023/11/06 10:27:53;;;;;;;14.20;13.70;;;12.90;99.90;;;;;;5010177;28;20924;-73
2023/11/06 10:30:20;;;;;;;13.70;13.30;;;13.20;99.90;;;;;;5006757;28;20819;-72
2023/11/06 10:32:47;;;;;;;14.20;13.70;;;13.60;99.90;;;;;;5014297;28;20467;-72
2023/11/06 10:35:17;;;;;;;14.30;13.80;;;13.90;99.90;;;;;;5005962;28;20603;-72
2023/11/06 10:37:44;;;;;;;13.67;13.27;;;13.80;99.90;;;;;;5014593;28;20490;-71
2023/11/06 10:40:16;;;;;;;14.17;13.67;;;14.00;99.90;;;;;;5010627;28;20475;-72
2023/11/06 10:42:44;;;;;;;13.50;13.10;;;14.40;99.90;;;;;;5013819;28;20471;-72
2023/11/06 10:45:14;;;;;;;14.17;13.67;;;14.40;99.90;;;;;;5014566;28;20497;-73
2023/11/06 10:47:45;;;;;;;14.00;13.50;;;14.00;99.90;;;;;;5011035;28;20519;-71
2023/11/06 10:50:17;;;;;;;14.33;13.83;;;13.90;99.90;;;;;;5012348;28;20470;-72
2023/11/06 10:52:49;;;;;;;14.93;14.43;;;13.90;99.90;;;;;;5011557;28;20504;-71
2023/11/06 10:55:18;;;;;;;14.80;14.30;;;13.80;99.90;;;;;;5015158;28;20983;-73
2023/11/06 10:57:51;;;;;;;14.90;14.40;;;13.90;99.90;;;;;;5013036;28;20498;-71
2023/11/06 11:00:20;;;;;;;14.20;13.70;;;14.10;99.90;;;;;;5015072;28;20557;-71
2023/11/06 11:02:51;;;;;;;14.23;13.73;;;13.90;99.90;;;;;;5006581;28;20597;-74
2023/11/06 11:05:23;;;;;;;14.30;13.80;;;13.80;99.90;;;;;;5014671;28;20843;-74
2023/11/06 11:07:51;;;;;;;14.47;13.97;;;14.00;99.90;;;;;;5014612;28;20940;-71
2023/11/06 11:10:22;;;;;;;14.80;14.30;;;14.20;99.90;;;;;;5014732;27;20461;-71
2023/11/06 11:12:52;;;;;;;13.80;13.40;;;14.30;99.90;;;;;;5012017;28;20824;-73
2023/11/06 11:15:25;;;;;;;14.37;13.87;;;14.30;99.90;;;;;;5012604;28;20494;-71
2023/11/06 11:17:59;;;;;;;14.30;13.80;;;14.10;99.90;;;;;;5009640;28;20555;-76
2023/11/06 11:20:27;;;;;;;14.13;13.63;;;14.20;99.90;;;;;;5010145;28;20914;-71
2023/11/06 11:23:06;;;;;;;14.00;13.50;;;14.40;99.90;;;;;;5013714;28;20995;-72
2023/11/06 11:25:57;;;;;;;14.30;13.80;;;14.70;99.90;;;;;;5013827;28;20557;-71
2023/11/06 11:28:25;;;;;;;14.80;14.30;;;14.80;99.90;;;;;;5012857;28;20467;-73
2023/11/06 11:30:53;;;;;;;14.30;13.80;;;15.10;99.90;;;;;;5008712;28;20548;-74
2023/11/06 11:33:54;;;;;;;14.40;13.90;;;15.30;99.90;;;;;;5013590;28;20517;-72
2023/11/06 11:36:29;;;;;;;14.33;13.83;;;15.10;99.90;;;;;;5009103;28;20470;-74
2023/11/06 11:38:57;;;;;;;14.30;13.80;;;14.90;99.90;;;;;;5013927;28;20536;-72
2023/11/06 11:41:25;;;;;;;15.07;14.57;;;15.20;99.90;;;;;;5013138;28;20477;-71
2023/11/06 11:44:04;;;;;;;14.60;14.10;;;15.50;99.90;;;;;;5009410;28;20492;-72
2023/11/06 11:46:55;;;;;;;14.90;14.40;;;15.80;99.90;;;;;;5012266;28;20560;-72
2023/11/06 11:49:43;;;;;;;14.80;14.30;;;15.50;99.90;;;;;;5012628;28;20897;-71
2023/11/06 11:52:10;;;;;;;14.20;13.70;;;15.50;99.90;;;;;;5009321;28;20513;-73
2023/11/06 11:54:39;;;;;;;14.80;14.30;;;15.20;99.90;;;;;;5006834;28;20853;-73
2023/11/06 11:57:08;;;;;;;14.90;14.40;;;15.00;99.90;;;;;;5008961;28;20588;-72
2023/11/06 11:59:40;;;;;;;14.90;14.40;;;14.60;99.90;;;;;;5012200;28;20492;-71
2023/11/06 12:02:09;;;;;;;14.40;13.90;;;14.50;99.90;;;;;;5005807;28;20546;-71
2023/11/06 12:04:36;;;;;;;14.50;14.00;;;14.70;99.90;;;;;;5005700;28;20590;-72
2023/11/06 12:07:05;;;;;;;14.93;14.43;;;14.30;99.90;;;;;;5007732;28;20988;-71
2023/11/06 12:09:47;;;;;;;14.50;14.00;;;14.20;99.90;;;;;;5012356;28;21134;-71
2023/11/06 12:12:20;;;;;;;14.97;14.47;;;14.30;99.90;;;;;;5013081;28;21048;-71
2023/11/06 12:14:47;;;;;;;14.43;13.93;;;14.30;99.90;;;;;;5004601;28;20467;-71
2023/11/06 12:17:25;;;;;;;14.50;14.00;;;14.30;99.90;;;;;;5010043;28;20811;-73
2023/11/06 12:19:52;;;;;;;14.30;13.80;;;14.30;99.90;;;;;;5009178;28;20494;-71
2023/11/06 12:22:18;;;;;;;14.30;13.80;;;14.20;99.90;;;;;;5013457;28;20527;-71
2023/11/06 12:24:50;;;;;;;14.03;13.53;;;14.40;99.90;;;;;;5007423;28;20475;-74
2023/11/06 12:27:17;;;;;;;14.37;13.87;;;14.70;99.90;;;;;;5012062;28;20992;-71
2023/11/06 12:29:46;;;;;;;14.63;14.13;;;14.70;99.90;;;;;;5012214;28;20525;-71
2023/11/06 12:32:21;;;;;;;14.80;14.30;;;15.10;99.90;;;;;;5010919;28;20551;-69
2023/11/06 12:34:48;;;;;;;14.93;14.43;;;15.80;99.90;;;;;;5010834;28;20475;-71
2023/11/06 12:37:15;;;;;;;14.43;13.93;;;16.20;99.90;;;;;;5012263;28;20525;-70
2023/11/06 12:39:42;;;;;;;14.50;14.00;;;16.30;99.90;;;;;;5007814;28;21015;-71